Time;durP1;ratioP1;P1;durP2;ratioP2;P2;SDS_P1;SDS_P2;PMS_P1;PMS_P2;Temp;Humidity;BMP_temperature;BMP_pressure;BME280_temperature;BME280_humidity;BME280_pressure;Samples;Min_cycle;Max_cycle;Signal;HPM_P1;HPM_P2
2021/07/31 00:00:12;;;;;;;7.20;6.22;;;;;;;16.23;89.85;99771.00;4916420;29;20074;-86
2021/07/31 00:02:42;;;;;;;6.60;6.00;;;;;;;16.16;90.74;99771.44;4912280;29;20573;-87
2021/07/31 00:05:11;;;;;;;6.25;5.65;;;;;;;16.13;91.46;99764.47;4915050;29;20547;-86
2021/07/31 00:07:42;;;;;;;6.50;5.90;;;;;;;16.10;91.85;99769.13;4915489;29;20079;-87
2021/07/31 00:10:12;;;;;;;7.68;6.20;;;;;;;16.09;91.74;99770.94;4928442;29;20054;-87
2021/07/31 00:12:42;;;;;;;7.90;5.97;;;;;;;16.07;92.44;99771.97;4932446;29;20043;-85
2021/07/31 00:15:12;;;;;;;7.20;6.50;;;;;;;16.04;92.50;99773.00;4915445;29;20047;-86
2021/07/31 00:17:45;;;;;;;7.22;6.15;;;;;;;16.00;93.28;99767.00;4929240;29;20055;-85
2021/07/31 00:20:12;;;;;;;8.18;6.65;;;;;;;16.00;93.02;99769.66;4939414;29;20043;-85
2021/07/31 00:22:42;;;;;;;7.22;6.53;;;;;;;15.99;93.47;99769.75;4927598;29;20039;-86
2021/07/31 00:25:16;;;;;;;7.55;6.78;;;;;;;15.96;94.10;99767.22;4903288;29;20476;-85
2021/07/31 00:27:46;;;;;;;8.63;6.53;;;;;;;15.99;93.89;99754.63;4925096;29;20043;-86
2021/07/31 00:30:14;;;;;;;7.65;6.80;;;;;;;16.01;93.95;99754.53;4909724;29;20415;-86
2021/07/31 00:32:47;;;;;;;;;;;;;;;16.02;93.69;99753.56;4922661;29;20048;-86
2021/07/31 00:35:18;;;;;;;7.05;6.20;;;;;;;16.04;92.51;99746.34;4919664;29;19930;-87
2021/07/31 00:37:47;;;;;;;8.10;6.90;;;;;;;16.08;92.29;99752.38;4907829;29;20086;-86
2021/07/31 00:40:19;;;;;;;8.02;6.20;;;;;;;16.10;92.00;99747.81;4940566;28;20043;-85
2021/07/31 00:42:49;;;;;;;8.38;7.38;;;;;;;16.07;91.19;99745.34;4930446;29;20565;-86
2021/07/31 00:45:15;;;;;;;7.82;5.93;;;;;;;16.07;91.18;99745.34;4929996;29;20431;-86
2021/07/31 00:47:44;;;;;;;8.00;7.20;;;;;;;16.03;91.74;99749.97;4916686;29;20076;-86
2021/07/31 00:50:14;;;;;;;8.57;7.35;;;;;;;15.96;91.98;99748.59;4927873;29;20596;-85
2021/07/31 00:52:42;;;;;;;7.50;6.43;;;;;;;15.88;92.35;99742.84;4913665;29;20107;-85
2021/07/31 00:55:13;;;;;;;7.40;6.70;;;;;;;15.81;92.81;99747.69;4896511;29;20059;-85
2021/07/31 00:57:43;;;;;;;7.25;6.43;;;;;;;15.75;92.56;99737.34;4911422;29;20039;-87
2021/07/31 01:00:10;;;;;;;8.30;6.57;;;;;;;15.68;92.33;99739.50;4915462;29;20107;-84
2021/07/31 01:02:39;;;;;;;7.18;6.30;;;;;;;15.64;92.34;99740.63;4932687;29;20051;-85
2021/07/31 01:05:06;;;;;;;7.43;6.60;;;;;;;15.62;92.39;99739.84;4916269;29;20052;-84
2021/07/31 01:07:35;;;;;;;6.72;6.03;;;;;;;15.64;92.57;99735.31;4917688;29;20522;-84
2021/07/31 01:10:04;;;;;;;8.55;6.20;;;;;;;15.59;92.27;99729.34;4904086;29;20095;-85
2021/07/31 01:12:32;;;;;;;7.95;6.47;;;;;;;15.59;92.08;99728.47;4931528;29;20050;-87
2021/07/31 01:14:59;;;;;;;7.70;6.10;;;;;;;15.57;92.89;99736.56;4900144;29;20055;-85
2021/07/31 01:17:26;;;;;;;7.10;6.40;;;;;;;15.59;93.51;99736.47;4912021;29;20044;-85
2021/07/31 01:20:11;;;;;;;8.52;6.80;;;;;;;15.56;94.36;99734.00;4919473;29;20048;-88
2021/07/31 01:22:38;;;;;;;7.60;6.20;;;;;;;15.58;94.30;99726.78;4905297;29;20054;-86
2021/07/31 01:25:07;;;;;;;7.80;6.53;;;;;;;15.58;94.82;99726.78;4898434;29;20052;-83
2021/07/31 01:27:34;;;;;;;7.82;7.03;;;;;;;15.55;94.75;99727.78;4948445;29;20597;-84
2021/07/31 01:30:04;;;;;;;7.85;6.90;;;;;;;15.60;94.41;99722.22;4914220;29;20047;-83
2021/07/31 01:32:30;;;;;;;9.65;6.90;;;;;;;15.54;94.68;99720.75;4927081;29;20400;-83
2021/07/31 01:34:57;;;;;;;7.72;6.47;;;;;;;15.53;95.12;99724.34;4922929;29;20280;-83
2021/07/31 01:37:25;;;;;;;7.53;6.05;;;;;;;15.52;95.21;99730.63;4930058;29;20547;-84
2021/07/31 01:39:54;;;;;;;7.97;6.75;;;;;;;15.52;95.07;99735.09;4900416;29;20043;-83
2021/07/31 01:42:21;;;;;;;7.65;6.90;;;;;;;15.46;94.65;99728.28;4908392;29;20047;-86
2021/07/31 01:44:51;;;;;;;7.15;6.47;;;;;;;15.46;94.29;99728.28;4918895;29;20044;-86
2021/07/31 01:47:18;;;;;;;7.13;6.30;;;;;;;15.47;93.70;99733.56;4902951;29;20048;-83
2021/07/31 01:49:49;;;;;;;12.63;6.63;;;;;;;15.43;93.65;99721.34;4935349;29;20048;-85
2021/07/31 01:52:17;;;;;;;14.07;7.47;;;;;;;15.52;91.57;99719.97;4921045;29;20047;-86
2021/07/31 01:54:46;;;;;;;12.55;7.28;;;;;;;15.44;92.56;99722.19;4922966;29;20052;-84
2021/07/31 01:57:13;;;;;;;8.50;6.45;;;;;;;15.43;91.92;99720.47;4931396;29;20048;-85
2021/07/31 01:59:40;;;;;;;9.55;6.78;;;;;;;15.39;92.15;99716.28;4953208;29;20052;-85
2021/07/31 02:02:06;;;;;;;7.10;6.00;;;;;;;15.33;92.01;99713.97;4934233;29;20048;-83
2021/07/31 02:04:34;;;;;;;8.85;6.20;;;;;;;15.27;91.82;99711.63;4933995;29;20536;-83
2021/07/31 02:07:01;;;;;;;7.18;6.00;;;;;;;15.26;91.30;99715.22;4927289;29;20047;-83
2021/07/31 02:09:28;;;;;;;8.25;6.15;;;;;;;15.25;91.58;99713.50;4920154;29;20495;-86
2021/07/31 02:11:56;;;;;;;7.45;6.63;;;;;;;15.21;92.09;99721.66;4921262;29;20066;-85
2021/07/31 02:14:23;;;;;;;7.45;6.55;;;;;;;15.19;92.97;99712.91;4919980;29;20063;-84
2021/07/31 02:16:50;;;;;;;8.02;6.32;;;;;;;15.24;93.10;99711.81;4928033;29;20052;-83
2021/07/31 02:19:16;;;;;;;6.40;5.80;;;;;;;15.28;94.45;99705.34;4934909;29;20463;-85
2021/07/31 02:21:43;;;;;;;10.70;6.93;;;;;;;15.32;93.96;99712.25;4920233;29;20629;-83
2021/07/31 02:24:13;;;;;;;8.38;7.00;;;;;;;15.38;92.81;99714.53;4918966;29;20051;-84
2021/07/31 02:26:40;;;;;;;7.63;6.82;;;;;;;15.52;92.88;99741.25;4935205;29;20115;-83
2021/07/31 02:29:07;;;;;;;10.10;7.60;;;;;;;15.55;93.04;99733.09;4932371;29;20044;-85
2021/07/31 02:31:34;;;;;;;8.25;7.45;;;;;;;15.63;91.44;99743.34;4902136;29;20084;-83
2021/07/31 02:34:00;;;;;;;7.32;6.63;;;;;;;15.59;91.04;99747.97;4906633;29;20052;-84
2021/07/31 02:36:27;;;;;;;8.48;6.50;;;;;;;15.56;92.53;99752.63;4931556;29;20054;-84
2021/07/31 02:38:54;;;;;;;7.75;6.13;;;;;;;15.55;92.57;99753.53;4904827;29;20404;-83
2021/07/31 02:41:21;;;;;;;7.47;6.68;;;;;;;15.51;92.45;99758.19;4921374;29;20040;-83
2021/07/31 02:43:47;;;;;;;8.50;6.32;;;;;;;15.49;91.44;99754.75;4901771;29;20058;-83
2021/07/31 02:46:14;;;;;;;6.65;6.05;;;;;;;15.49;90.62;99750.28;4912210;29;20574;-82
2021/07/31 02:48:41;;;;;;;7.10;6.18;;;;;;;15.49;90.64;99755.63;4909528;29;20102;-83
2021/07/31 02:51:09;;;;;;;9.20;6.45;;;;;;;15.51;90.13;99747.53;4929948;29;20043;-83
2021/07/31 02:53:36;;;;;;;7.65;6.85;;;;;;;15.48;90.35;99745.06;4917288;29;20455;-84
2021/07/31 02:56:04;;;;;;;8.48;7.65;;;;;;;15.50;90.49;99740.50;4913853;29;20048;-84
2021/07/31 02:58:30;;;;;;;11.52;6.50;;;;;;;15.48;90.79;99747.72;4915462;29;20098;-83
2021/07/31 03:01:02;;;;;;;7.57;6.50;;;;;;;15.49;90.82;99736.97;4915146;29;20500;-84
2021/07/31 03:03:29;;;;;;;7.45;6.43;;;;;;;15.45;91.22;99742.53;4918282;29;20048;-84
2021/07/31 03:05:57;;;;;;;8.45;7.07;;;;;;;15.46;91.89;99742.47;5017609;23;20030;-83
2021/07/31 03:08:25;;;;;;;8.30;6.95;;;;;;;15.47;92.25;99746.88;4914211;29;20044;-84
2021/07/31 03:10:53;;;;;;;7.43;6.72;;;;;;;15.46;92.25;99744.25;4935291;29;20043;-84
2021/07/31 03:13:20;;;;;;;7.95;7.03;;;;;;;15.47;93.04;99752.19;4925683;29;20056;-83
2021/07/31 03:15:47;;;;;;;10.18;6.65;;;;;;;15.50;92.95;99751.16;4927473;29;20051;-82
2021/07/31 03:18:14;;;;;;;6.82;6.13;;;;;;;15.48;92.97;99758.38;4922191;29;20047;-84
2021/07/31 03:20:48;;;;;;;7.75;7.05;;;;;;;15.51;93.91;99752.00;4933556;29;20036;-84
2021/07/31 03:23:16;;;;;;;7.03;6.20;;;;;;;15.55;92.96;99757.06;4898319;29;20463;-84
2021/07/31 03:25:43;;;;;;;8.30;6.50;;;;;;;15.60;92.49;99756.81;4929109;29;20110;-82
2021/07/31 03:28:09;;;;;;;7.50;6.47;;;;;;;15.62;91.99;99761.13;4930032;29;20047;-82
2021/07/31 03:30:41;;;;;;;6.00;5.50;;;;;;;15.66;92.33;99765.38;4934762;28;20071;-83
2021/07/31 03:33:08;;;;;;;7.30;6.60;;;;;;;15.63;93.21;99762.00;4928841;29;20040;-82
2021/07/31 03:35:36;;;;;;;7.85;6.45;;;;;;;15.69;92.98;99761.66;4927915;29;20043;-84
2021/07/31 03:38:04;;;;;;;7.65;6.85;;;;;;;15.64;93.01;99767.25;4928100;29;20052;-84
2021/07/31 03:40:30;;;;;;;7.63;6.07;;;;;;;15.67;92.41;99768.88;4942520;29;20048;-82
2021/07/31 03:42:57;;;;;;;10.38;6.57;;;;;;;15.71;92.88;99767.75;4913222;29;20092;-83
2021/07/31 03:45:24;;;;;;;7.50;5.65;;;;;;;15.76;91.52;99771.88;4906936;29;20127;-82
2021/07/31 03:47:51;;;;;;;7.25;6.13;;;;;;;15.79;91.18;99768.19;4947239;28;20064;-82
2021/07/31 03:50:18;;;;;;;7.97;6.43;;;;;;;15.84;90.42;99776.78;4942035;28;20044;-83
2021/07/31 03:52:45;;;;;;;6.35;5.47;;;;;;;15.82;90.11;99773.38;4944868;28;20048;-84
2021/07/31 03:55:13;;;;;;;6.28;5.03;;;;;;;15.86;89.99;99774.88;4928785;29;20460;-83
2021/07/31 03:57:40;;;;;;;6.60;5.28;;;;;;;15.96;89.72;99776.09;4912745;29;20088;-84
2021/07/31 04:00:08;;;;;;;11.73;5.65;;;;;;;15.99;89.36;99775.06;4901261;29;20067;-82
2021/07/31 04:02:34;;;;;;;5.85;5.20;;;;;;;16.02;88.97;99773.06;4919538;29;20075;-82
2021/07/31 04:05:01;;;;;;;6.38;5.07;;;;;;;16.06;88.83;99776.44;4914742;29;20099;-84
2021/07/31 04:07:28;;;;;;;5.57;4.63;;;;;;;15.99;89.76;99777.75;4928188;29;20467;-82
2021/07/31 04:09:54;;;;;;;6.25;4.90;;;;;;;16.01;90.32;99781.16;4944984;28;20047;-83
2021/07/31 04:12:21;;;;;;;4.97;4.43;;;;;;;16.07;89.52;99779.97;4925931;29;20036;-83
2021/07/31 04:14:48;;;;;;;5.60;4.28;;;;;;;16.14;89.56;99778.66;4942229;28;20115;-82
2021/07/31 04:17:14;;;;;;;7.50;4.88;;;;;;;16.17;89.90;99778.50;4922182;29;20051;-83
2021/07/31 04:19:41;;;;;;;4.82;4.35;;;;;;;16.22;90.08;99782.59;4917712;29;20055;-83
2021/07/31 04:22:08;;;;;;;5.45;4.50;;;;;;;16.25;90.46;99787.75;4929024;29;20111;-82
2021/07/31 04:24:36;;;;;;;5.18;4.53;;;;;;;16.27;89.26;99791.19;4893093;29;20488;-83
2021/07/31 04:27:04;;;;;;;5.20;4.70;;;;;;;16.37;89.21;99799.50;4943036;28;20067;-84
2021/07/31 04:29:31;;;;;;;4.97;3.92;;;;;;;16.44;88.54;99798.19;4917522;29;20048;-84
2021/07/31 04:31:57;;;;;;;5.88;4.50;;;;;;;16.53;87.03;99796.81;4920112;29;20051;-82
2021/07/31 04:34:27;;;;;;;7.05;4.25;;;;;;;16.58;86.05;99802.75;4918628;29;20135;-82
2021/07/31 04:36:54;;;;;;;7.32;4.05;;;;;;;16.67;85.95;99810.19;4900989;29;20040;-84
2021/07/31 04:39:20;;;;;;;4.78;3.75;;;;;;;16.65;85.24;99811.22;4911075;29;20033;-83
2021/07/31 04:41:47;;;;;;;5.07;3.72;;;;;;;16.68;84.35;99806.56;4926871;29;20072;-84
2021/07/31 04:44:14;;;;;;;4.45;3.83;;;;;;;16.70;84.83;99814.50;4894228;29;20100;-82
2021/07/31 04:46:40;;;;;;;5.40;3.58;;;;;;;16.76;84.43;99820.34;4919897;29;20045;-83
2021/07/31 04:49:07;;;;;;;4.28;3.38;;;;;;;16.78;83.60;99820.25;4919270;29;20055;-82
2021/07/31 04:51:34;;;;;;;4.50;3.40;;;;;;;16.68;83.72;99819.91;4897093;29;20043;-82
2021/07/31 04:54:00;;;;;;;4.03;3.63;;;;;;;16.68;84.26;99824.38;4908765;29;20108;-84
2021/07/31 04:56:27;;;;;;;4.18;3.60;;;;;;;16.68;82.93;99819.91;4939131;28;20066;-81
2021/07/31 04:58:54;;;;;;;5.22;3.53;;;;;;;16.76;83.68;99827.50;4900906;29;20130;-84
2021/07/31 05:01:21;;;;;;;3.95;3.28;;;;;;;16.75;82.90;99823.97;4945492;29;20614;-82
2021/07/31 05:03:47;;;;;;;5.55;3.72;;;;;;;16.76;83.21;99831.03;4931080;29;20052;-83
2021/07/31 05:06:15;;;;;;;4.47;3.40;;;;;;;16.81;83.42;99825.41;4913392;29;20096;-84
2021/07/31 05:08:41;;;;;;;4.05;2.80;;;;;;;16.81;82.96;99828.91;4915497;29;20115;-82
2021/07/31 05:11:09;;;;;;;5.55;3.35;;;;;;;16.95;81.72;99829.91;4921081;29;20037;-84
2021/07/31 05:13:38;;;;;;;6.38;3.50;;;;;;;16.99;81.48;99831.47;4921385;29;20048;-84
2021/07/31 05:16:05;;;;;;;3.33;3.03;;;;;;;17.03;81.67;99833.00;4930071;29;20096;-84
2021/07/31 05:18:32;;;;;;;5.45;3.60;;;;;;;17.12;81.08;99821.75;4915602;29;20404;-83
2021/07/31 05:20:59;;;;;;;4.85;3.40;;;;;;;17.14;81.02;99831.38;4935751;28;20542;-84
2021/07/31 05:23:26;;;;;;;4.05;3.30;;;;;;;17.13;80.36;99828.81;4905352;29;20051;-83
2021/07/31 05:25:52;;;;;;;3.50;3.20;;;;;;;17.17;80.40;99830.34;4944628;28;20044;-81
2021/07/31 05:28:20;;;;;;;4.13;2.90;;;;;;;17.35;78.89;99829.22;4917817;29;20050;-81
2021/07/31 05:30:47;;;;;;;4.40;3.95;;;;;;;17.34;78.29;99832.00;4929879;29;20536;-83
2021/07/31 05:33:14;;;;;;;3.83;2.80;;;;;;;17.37;77.99;99831.78;4911740;29;20135;-84
2021/07/31 05:35:41;;;;;;;3.90;2.92;;;;;;;17.37;78.88;99832.66;4943033;28;20460;-85
2021/07/31 05:38:07;;;;;;;4.07;3.30;;;;;;;17.42;79.29;99835.03;4933551;29;20043;-84
2021/07/31 05:40:34;;;;;;;3.13;2.83;;;;;;;17.56;76.44;99836.84;4897657;29;20476;-84
2021/07/31 05:43:01;;;;;;;4.13;3.00;;;;;;;17.55;77.00;99827.13;4922633;29;20107;-83
2021/07/31 05:45:27;;;;;;;3.83;3.10;;;;;;;17.65;75.81;99837.13;4914325;29;20579;-82
2021/07/31 05:47:57;;;;;;;4.55;2.80;;;;;;;17.63;76.83;99838.19;4908862;29;20044;-84
2021/07/31 05:50:24;;;;;;;4.32;2.60;;;;;;;17.76;74.92;99833.84;4902109;29;20044;-83
2021/07/31 05:52:50;;;;;;;3.40;2.88;;;;;;;17.88;73.46;99849.06;4912529;29;20041;-87
2021/07/31 05:55:17;;;;;;;4.15;2.90;;;;;;;18.05;73.28;99847.13;4934244;29;20036;-83
2021/07/31 05:57:44;;;;;;;5.40;3.25;;;;;;;18.11;74.16;99849.44;4930194;29;20052;-83
2021/07/31 06:00:11;;;;;;;3.97;2.80;;;;;;;18.32;71.56;99847.16;4929846;29;20103;-86
2021/07/31 06:02:38;;;;;;;4.53;2.40;;;;;;;18.39;70.49;99851.16;4904701;29;20515;-83
2021/07/31 06:05:05;;;;;;;4.25;2.70;;;;;;;18.49;70.51;99852.25;4937940;28;20043;-84
2021/07/31 06:07:32;;;;;;;3.05;2.58;;;;;;;18.54;70.40;99853.69;4903332;29;20637;-83
2021/07/31 06:09:59;;;;;;;4.18;2.63;;;;;;;18.90;69.72;99854.03;4912992;29;20047;-83
2021/07/31 06:12:26;;;;;;;4.18;2.30;;;;;;;20.02;65.64;99856.00;4930478;29;20047;-85
2021/07/31 06:14:53;;;;;;;5.25;2.40;;;;;;;20.98;60.83;99856.03;4929854;29;20107;-83
2021/07/31 06:17:19;;;;;;;2.95;2.63;;;;;;;22.21;56.77;99858.88;4919225;29;20499;-85
2021/07/31 06:19:46;;;;;;;5.60;2.13;;;;;;;23.12;54.78;99857.59;4923901;29;20053;-84
2021/07/31 06:22:13;;;;;;;4.97;2.45;;;;;;;23.22;52.87;99855.84;4930336;29;20040;-87
2021/07/31 06:24:39;;;;;;;3.42;1.80;;;;;;;23.12;54.09;99860.28;4896118;29;21612;-84
2021/07/31 06:27:10;;;;;;;6.78;2.90;;;;;;;23.46;52.24;99848.34;4913684;29;20055;-82
2021/07/31 06:29:37;;;;;;;2.78;1.90;;;;;;;23.61;51.46;99848.84;4933022;29;20036;-81
2021/07/31 06:32:04;;;;;;;3.40;2.17;;;;;;;24.21;49.94;99846.22;4927506;29;20055;-82
2021/07/31 06:34:30;;;;;;;4.43;2.30;;;;;;;24.68;48.17;99855.44;4935798;28;20456;-82
2021/07/31 06:36:57;;;;;;;4.53;1.90;;;;;;;24.63;48.15;99855.00;4932078;29;20123;-82
2021/07/31 06:39:25;;;;;;;5.35;1.83;;;;;;;24.35;48.30;99844.03;4926627;29;20067;-85
2021/07/31 06:41:52;;;;;;;7.15;2.00;;;;;;;23.58;50.26;99858.03;4929119;29;20044;-86
2021/07/31 06:44:19;;;;;;;4.07;1.92;;;;;;;23.70;49.45;99856.13;4915056;29;20051;-82
2021/07/31 06:46:46;;;;;;;3.78;2.30;;;;;;;23.66;51.13;99854.69;4942720;29;20184;-82
2021/07/31 06:49:12;;;;;;;4.05;2.40;;;;;;;23.40;48.58;99854.25;4918927;29;20496;-82
2021/07/31 06:51:39;;;;;;;3.90;1.88;;;;;;;23.23;49.82;99861.09;4929145;29;20135;-84
2021/07/31 06:54:06;;;;;;;2.15;1.73;;;;;;;23.00;50.15;99856.81;4944332;29;20044;-82
2021/07/31 06:56:34;;;;;;;3.40;1.77;;;;;;;22.75;50.52;99857.97;4945644;29;20055;-85
2021/07/31 06:59:02;;;;;;;3.65;2.35;;;;;;;22.85;50.38;99853.56;4948118;28;20109;-83
2021/07/31 07:01:29;;;;;;;3.53;1.67;;;;;;;22.69;50.25;99853.09;4932452;29;20039;-81
2021/07/31 07:03:56;;;;;;;4.03;1.70;;;;;;;22.76;50.74;99855.16;4945112;28;20076;-81
2021/07/31 07:06:23;;;;;;;4.38;2.20;;;;;;;22.64;49.81;99853.50;4946061;28;20044;-86
2021/07/31 07:08:50;;;;;;;3.58;1.67;;;;;;;22.33;49.54;99847.09;4933761;29;20092;-83
2021/07/31 07:11:19;;;;;;;2.33;1.70;;;;;;;22.36;50.50;99851.38;4946258;28;20040;-84
2021/07/31 07:13:46;;;;;;;4.13;1.60;;;;;;;22.20;49.78;99846.41;4924711;29;20756;-81
2021/07/31 07:16:13;;;;;;;2.90;1.40;;;;;;;22.09;50.98;99841.88;4910516;29;20048;-83
2021/07/31 07:18:40;;;;;;;3.42;2.00;;;;;;;;;;4902611;29;20083;-80
2021/07/31 07:21:08;;;;;;;3.63;1.90;;;;;;;22.12;50.02;99855.09;4916958;29;20528;-83
2021/07/31 07:23:36;;;;;;;3.53;1.92;;;;;;;22.12;49.82;99848.88;4951699;28;20048;-82
2021/07/31 07:26:07;;;;;;;3.13;1.50;;;;;;;21.82;48.93;99847.63;4902881;29;20048;-82
2021/07/31 07:28:34;;;;;;;1.83;1.35;;;;;;;21.76;50.21;99849.94;4908839;29;20048;-82
2021/07/31 07:31:02;;;;;;;2.63;1.42;;;;;;;21.68;50.36;99836.25;4914189;29;20118;-82
2021/07/31 07:33:29;;;;;;;4.80;1.88;;;;;;;21.80;50.67;99838.00;4934756;29;20071;-82
2021/07/31 07:35:55;;;;;;;2.80;1.27;;;;;;;22.22;50.65;99838.22;4930541;29;20052;-85
2021/07/31 07:38:22;;;;;;;1.55;1.35;;;;;;;22.63;49.46;99834.78;4932342;29;20507;-82
2021/07/31 07:40:48;;;;;;;2.05;1.48;;;;;;;22.93;48.56;99829.53;4915426;29;20068;-82
2021/07/31 07:43:15;;;;;;;2.88;1.70;;;;;;;23.17;47.28;99831.97;4922624;29;20171;-81
2021/07/31 07:45:44;;;;;;;2.20;1.30;;;;;;;23.39;46.29;99830.13;4926687;29;20385;-85
2021/07/31 07:48:10;;;;;;;1.95;1.35;;;;;;;23.48;47.26;99835.56;4901822;29;20048;-84
2021/07/31 07:50:37;;;;;;;3.17;1.55;;;;;;;23.25;46.32;99823.22;4926488;29;20039;-82
2021/07/31 07:53:04;;;;;;;2.05;1.20;;;;;;;23.28;47.01;99831.88;4929923;29;20068;-87
2021/07/31 07:55:30;;;;;;;3.85;1.52;;;;;;;23.36;46.91;99833.91;4944836;28;20048;-82
2021/07/31 07:57:57;;;;;;;15.93;2.78;;;;;;;23.05;46.25;99827.66;4938247;29;20044;-82
2021/07/31 08:00:23;;;;;;;2.97;1.60;;;;;;;22.91;47.52;99838.72;4897643;29;20055;-83
2021/07/31 08:02:50;;;;;;;3.85;1.45;;;;;;;23.02;46.03;99842.22;4950710;28;20535;-86
2021/07/31 08:05:17;;;;;;;3.78;1.30;;;;;;;23.01;46.70;99837.81;4917111;29;20064;-81
2021/07/31 08:07:44;;;;;;;5.18;2.20;;;;;;;22.84;46.80;99834.81;4913471;29;20048;-83
2021/07/31 08:10:12;;;;;;;2.60;1.60;;;;;;;22.28;49.04;99835.88;4932497;29;20052;-82
2021/07/31 08:12:39;;;;;;;14.20;2.20;;;;;;;22.32;47.70;99842.72;4910537;29;20048;-83
2021/07/31 08:15:06;;;;;;;3.92;1.63;;;;;;;22.28;47.78;99832.31;4923066;29;20060;-82
2021/07/31 08:17:33;;;;;;;4.13;1.48;;;;;;;22.32;48.50;99839.16;4916939;29;20043;-84
2021/07/31 08:20:00;;;;;;;2.25;1.40;;;;;;;22.18;47.90;99834.91;4932626;29;20044;-86
2021/07/31 08:22:27;;;;;;;3.58;1.27;;;;;;;22.03;48.42;99836.13;4920963;29;20443;-81
2021/07/31 08:24:54;;;;;;;11.15;2.17;;;;;;;21.88;48.06;99847.16;4921851;29;20044;-82
2021/07/31 08:27:21;;;;;;;2.78;1.30;;;;;;;21.80;48.86;99840.69;4946152;29;20604;-83
2021/07/31 08:29:47;;;;;;;2.47;1.70;;;;;;;21.69;48.62;99854.09;4944916;28;20044;-82
2021/07/31 08:32:14;;;;;;;2.72;1.38;;;;;;;21.52;49.00;99844.69;4912438;29;20040;-81
2021/07/31 08:34:41;;;;;;;17.63;4.18;;;;;;;21.32;49.58;99843.56;4929035;29;20048;-84
2021/07/31 08:37:08;;;;;;;14.13;2.75;;;;;;;21.46;48.90;99847.88;4915878;29;20099;-82
2021/07/31 08:39:36;;;;;;;3.35;1.50;;;;;;;21.72;48.44;99829.69;4915089;29;20131;-82
2021/07/31 08:42:05;;;;;;;2.95;1.70;;;;;;;22.14;48.82;99841.53;4899755;29;20040;-85
2021/07/31 08:44:35;;;;;;;3.15;1.40;;;;;;;22.34;46.08;99840.75;4897845;29;20044;-83
2021/07/31 08:47:04;;;;;;;2.15;1.13;;;;;;;22.66;45.49;99829.13;4913246;29;20527;-81
2021/07/31 08:49:35;;;;;;;2.25;1.30;;;;;;;23.21;46.35;99821.78;4912217;29;20048;-82
2021/07/31 08:52:06;;;;;;;1.92;0.95;;;;;;;23.51;44.93;99826.34;4916433;29;20048;-84
2021/07/31 08:54:36;;;;;;;6.20;1.65;;;;;;;23.55;44.96;99835.88;4915816;29;20048;-80
2021/07/31 08:57:06;;;;;;;4.65;1.40;;;;;;;23.40;45.62;99839.91;4901621;29;20059;-82
2021/07/31 08:59:33;;;;;;;2.83;1.33;;;;;;;22.93;45.61;99834.06;4900241;29;20065;-82
2021/07/31 09:02:00;;;;;;;2.47;1.52;;;;;;;22.56;46.67;99830.91;4915892;29;20048;-82
2021/07/31 09:04:28;;;;;;;3.47;1.33;;;;;;;22.85;46.67;99817.69;4930996;29;20044;-81
2021/07/31 09:06:54;;;;;;;18.15;2.92;;;;;;;22.84;46.70;99824.88;4945537;29;20499;-83
2021/07/31 09:09:25;;;;;;;1.58;1.30;;;;;;;22.57;46.65;99830.75;4929854;29;20051;-82
2021/07/31 09:12:05;;;;;;;7.25;1.80;;;;;;;22.21;47.04;99834.66;4915156;29;20040;-83
2021/07/31 09:14:33;;;;;;;4.65;1.60;;;;;;;22.09;47.20;99835.66;4999043;23;20598;-81
2021/07/31 09:17:01;;;;;;;4.20;1.33;;;;;;;21.91;47.09;99833.44;4897161;29;20072;-80
2021/07/31 09:19:28;;;;;;;4.75;1.52;;;;;;;22.39;49.04;99825.06;4895596;29;20044;-80
2021/07/31 09:22:06;;;;;;;3.03;1.30;;;;;;;22.60;47.20;99841.25;4897621;29;20039;-80
2021/07/31 09:24:33;;;;;;;2.42;1.35;;;;;;;22.77;46.62;99834.47;4889726;29;20059;-80
2021/07/31 09:27:00;;;;;;;5.45;1.30;;;;;;;22.95;46.57;99842.84;4912200;29;20036;-80
2021/07/31 09:29:32;;;;;;;1.90;1.13;;;;;;;23.38;47.09;99828.41;4864701;29;20088;-80
2021/07/31 09:32:01;;;;;;;4.53;1.10;;;;;;;23.72;44.37;99832.59;4895299;29;20044;-79
2021/07/31 09:34:37;;;;;;;2.88;1.33;;;;;;;23.57;44.47;99829.38;4878245;29;20060;-80
2021/07/31 09:37:06;;;;;;;3.78;1.40;;;;;;;23.66;44.45;99838.53;4894583;29;20045;-80
2021/07/31 09:39:58;;;;;;;3.10;1.77;;;;;;;23.50;44.98;99840.81;4914163;29;20479;-80
2021/07/31 09:42:35;;;;;;;2.58;1.30;;;;;;;23.56;44.09;99833.06;4883645;29;20104;-81
2021/07/31 09:45:11;;;;;;;1.83;1.40;;;;;;;23.41;44.57;99838.94;4879102;29;20044;-80
2021/07/31 09:47:57;;;;;;;3.47;1.50;;;;;;;23.26;43.99;99831.16;4875093;29;20052;-79
2021/07/31 09:50:46;;;;;;;2.05;1.10;;;;;;;23.20;44.42;99834.38;4910054;29;20115;-80
2021/07/31 09:53:24;;;;;;;2.35;1.17;;;;;;;23.11;44.43;99850.50;4877612;29;20044;-82
2021/07/31 09:55:55;;;;;;;2.17;1.10;;;;;;;23.20;44.79;99841.63;4895318;29;20044;-81
2021/07/31 09:58:23;;;;;;;2.28;1.55;;;;;;;23.66;44.83;99843.91;4897973;29;20473;-82
2021/07/31 10:00:51;;;;;;;1.80;1.10;;;;;;;23.78;43.15;99836.56;4909433;29;20048;-80
2021/07/31 10:03:18;;;;;;;4.47;1.50;;;;;;;24.02;42.58;99834.38;4896506;29;20079;-81
2021/07/31 10:05:46;;;;;;;6.13;1.60;;;;;;;24.06;43.14;99838.53;4890977;29;20073;-80
2021/07/31 10:08:30;;;;;;;3.35;1.20;;;;;;;24.27;43.66;99833.03;4883333;29;20183;-81
2021/07/31 10:10:57;;;;;;;4.53;1.40;;;;;;;24.15;41.97;99829.63;4883883;29;20049;-81
2021/07/31 10:13:25;;;;;;;2.90;1.30;;;;;;;24.29;42.23;99831.03;4899995;29;20111;-79
2021/07/31 10:15:51;;;;;;;2.17;1.20;;;;;;;24.63;42.50;99828.84;4908648;29;20045;-81
2021/07/31 10:18:19;;;;;;;4.80;1.40;;;;;;;24.86;40.83;99824.00;4893589;29;20420;-81
2021/07/31 10:20:46;;;;;;;1.88;1.27;;;;;;;24.88;40.92;99822.00;4899871;29;20275;-81
2021/07/31 10:23:12;;;;;;;33.28;4.75;;;;;;;24.57;40.88;99818.63;4896593;29;20414;-80
2021/07/31 10:26:09;;;;;;;2.72;1.35;;;;;;;24.66;41.80;99820.47;4864499;29;20515;-81
2021/07/31 10:28:36;;;;;;;2.25;1.90;;;;;;;25.12;41.92;99807.22;4881085;29;20048;-81
2021/07/31 10:31:32;;;;;;;3.05;1.50;;;;;;;24.78;39.59;99814.91;4893734;29;20093;-81
2021/07/31 10:33:59;;;;;;;1.83;1.10;;;;;;;24.74;41.05;99818.91;4884650;29;20178;-81
2021/07/31 10:36:34;;;;;;;3.17;1.10;;;;;;;24.57;39.49;99815.94;4892236;29;20080;-82
2021/07/31 10:39:26;;;;;;;4.72;1.50;;;;;;;24.30;41.61;99835.47;4867842;29;20554;-79
2021/07/31 10:41:57;;;;;;;3.60;1.30;;;;;;;23.61;41.34;99829.13;4917352;29;20557;-79
2021/07/31 10:44:25;;;;;;;3.10;1.25;;;;;;;23.56;42.85;99834.91;4877223;29;20063;-80
2021/07/31 10:47:34;;;;;;;1.30;1.20;;;;;;;23.49;43.55;99831.03;4918286;29;20095;-79
2021/07/31 10:50:26;;;;;;;2.60;1.20;;;;;;;23.51;43.81;99845.22;4910243;29;20055;-81
2021/07/31 10:53:08;;;;;;;1.88;1.25;;;;;;;23.25;43.67;99842.94;4907675;29;20052;-80
2021/07/31 10:55:35;;;;;;;2.80;1.17;;;;;;;23.14;42.91;99843.03;4889388;29;20072;-80
2021/07/31 10:58:01;;;;;;;2.45;1.30;;;;;;;23.22;43.99;99843.22;4889538;29;20085;-79
2021/07/31 11:00:30;;;;;;;2.75;1.27;;;;;;;23.47;45.13;99851.88;4889337;29;20056;-79
2021/07/31 11:03:03;;;;;;;1.65;1.35;;;;;;;23.66;42.11;99837.66;4904727;29;20124;-80
2021/07/31 11:05:54;;;;;;;;;;;;;;;23.61;43.73;99831.81;4903596;29;20096;-80
2021/07/31 11:08:27;;;;;;;2.58;1.17;;;;;;;23.54;43.33;99839.53;4888387;29;19991;-79
2021/07/31 11:10:55;;;;;;;4.25;1.58;;;;;;;23.40;45.25;99832.69;4879017;29;20045;-80
2021/07/31 11:13:21;;;;;;;2.67;1.95;;;;;;;23.33;43.76;99834.19;4874268;29;20580;-80
2021/07/31 11:16:17;;;;;;;1.95;1.50;;;;;;;23.22;44.25;99834.28;4909132;29;20053;-80
2021/07/31 11:18:48;;;;;;;2.83;1.50;;;;;;;23.14;45.49;99829.56;4902318;29;20056;-80
2021/07/31 11:21:38;;;;;;;1.20;1.10;;;;;;;22.91;44.75;99842.28;4901541;29;20044;-79
2021/07/31 11:24:07;;;;;;;3.95;1.50;;;;;;;23.09;45.49;99834.47;4883941;29;20060;-79
2021/07/31 11:26:48;;;;;;;2.00;1.45;;;;;;;23.14;45.33;99832.25;4884854;29;20052;-77
2021/07/31 11:29:28;;;;;;;3.05;1.38;;;;;;;23.16;45.71;99832.97;4908219;29;20440;-80
2021/07/31 11:32:11;;;;;;;7.18;1.60;;;;;;;23.26;46.72;99833.88;4897215;29;20040;-80
2021/07/31 11:34:43;;;;;;;3.92;1.50;;;;;;;23.36;44.96;99817.75;4895464;29;20112;-80
2021/07/31 11:37:10;;;;;;;2.92;1.30;;;;;;;23.26;44.00;99820.38;4880099;29;20112;-80
2021/07/31 11:39:37;;;;;;;4.40;1.52;;;;;;;23.13;44.46;99818.91;4876313;29;20043;-80
2021/07/31 11:42:09;;;;;;;2.30;1.20;;;;;;;22.94;44.55;99839.31;4883178;29;20063;-80